createdAt,value
2019-02-16T00:00:26.550Z,9.47
2019-02-16T00:02:55.806Z,7.47
2019-02-16T00:05:24.977Z,8.67
2019-02-16T00:07:54.221Z,7.83
2019-02-16T00:10:23.415Z,10.30
2019-02-16T00:12:52.676Z,8.47
2019-02-16T00:15:21.935Z,9.67
2019-02-16T00:17:51.123Z,9.00
2019-02-16T00:20:20.347Z,10.00
2019-02-16T00:22:49.566Z,8.37
2019-02-16T00:25:18.820Z,9.77
2019-02-16T00:27:48.071Z,9.67
2019-02-16T00:30:17.342Z,9.40
2019-02-16T00:32:46.683Z,8.43
2019-02-16T00:35:15.944Z,9.83
2019-02-16T00:37:45.276Z,10.80
2019-02-16T00:40:14.552Z,8.40
2019-02-16T00:42:43.700Z,9.53
2019-02-16T00:45:12.959Z,7.87
2019-02-16T00:47:42.258Z,9.77
2019-02-16T00:50:11.516Z,7.90
2019-02-16T00:52:40.674Z,7.77
2019-02-16T00:55:09.847Z,9.63
2019-02-16T00:57:38.995Z,7.30
2019-02-16T01:00:09.816Z,8.67
2019-02-16T01:02:39.044Z,8.63
2019-02-16T01:05:08.325Z,8.63
2019-02-16T01:07:37.579Z,12.17
2019-02-16T01:10:07.661Z,9.57
2019-02-16T01:12:36.896Z,10.43
2019-02-16T01:15:07.787Z,10.10
2019-02-16T01:17:37.024Z,12.10
2019-02-16T01:20:08.566Z,9.57
2019-02-16T01:22:37.824Z,11.73
2019-02-16T01:25:07.402Z,9.83
2019-02-16T01:27:36.663Z,9.20
2019-02-16T01:30:08.299Z,9.03
2019-02-16T01:32:37.627Z,10.60
2019-02-16T01:35:07.705Z,11.67
2019-02-16T01:37:37.038Z,12.40
2019-02-16T01:40:08.715Z,12.17
2019-02-16T01:42:38.050Z,10.13
2019-02-16T01:45:08.907Z,13.20
2019-02-16T01:47:38.163Z,10.63
2019-02-16T01:50:08.604Z,10.93
2019-02-16T01:52:37.939Z,10.53
2019-02-16T01:55:09.176Z,10.70
2019-02-16T01:57:38.434Z,11.63
2019-02-16T02:00:09.271Z,13.07
2019-02-16T02:02:38.543Z,11.13
2019-02-16T02:05:08.492Z,11.63
2019-02-16T02:07:37.796Z,12.10
2019-02-16T02:10:08.245Z,12.57
2019-02-16T02:12:37.500Z,9.57
2019-02-16T02:15:07.451Z,12.20
2019-02-16T02:17:36.717Z,14.23
2019-02-16T02:20:06.435Z,12.57
2019-02-16T02:22:35.723Z,14.60
2019-02-16T02:25:05.575Z,14.43
2019-02-16T02:27:34.808Z,10.03
2019-02-16T02:30:04.620Z,11.17
2019-02-16T02:32:33.858Z,14.90
2019-02-16T02:35:03.115Z,12.27
2019-02-16T02:37:32.297Z,11.20
2019-02-16T02:40:01.598Z,11.60
2019-02-16T02:42:30.956Z,12.60
2019-02-16T02:45:00.397Z,9.23
2019-02-16T02:47:29.672Z,13.07
2019-02-16T02:49:59.017Z,11.33
2019-02-16T02:52:28.168Z,8.63
2019-02-16T02:54:57.344Z,10.57
2019-02-16T02:57:26.575Z,12.67
2019-02-16T02:59:55.828Z,10.43
2019-02-16T03:02:25.055Z,11.43
2019-02-16T03:04:54.307Z,10.90
2019-02-16T03:07:23.549Z,11.50
2019-02-16T03:09:52.739Z,14.00
2019-02-16T03:12:21.971Z,11.73
2019-02-16T03:14:51.195Z,11.93
2019-02-16T03:17:20.464Z,12.60
2019-02-16T03:19:49.779Z,12.90
2019-02-16T03:22:19.053Z,12.50
2019-02-16T03:24:48.328Z,11.47
2019-02-16T03:27:57.084Z,9.93
2019-02-16T03:30:59.049Z,11.97
2019-02-16T03:33:58.843Z,10.87
2019-02-16T03:37:00.423Z,11.13
2019-02-16T03:39:32.655Z,13.33
2019-02-16T03:42:01.845Z,9.87
2019-02-16T03:44:31.279Z,11.60
2019-02-16T03:47:00.498Z,11.00
2019-02-16T03:49:29.765Z,10.10
2019-02-16T03:51:59.119Z,12.30
2019-02-16T03:54:28.345Z,11.23
2019-02-16T03:56:57.528Z,11.13
2019-02-16T03:59:26.719Z,11.63
2019-02-16T04:01:55.937Z,10.90
2019-02-16T04:04:25.190Z,10.77
2019-02-16T04:06:54.383Z,10.43
2019-02-16T04:09:23.614Z,11.77
2019-02-16T04:11:52.944Z,10.97
2019-02-16T04:14:22.171Z,12.67
2019-02-16T04:16:51.365Z,12.60
2019-02-16T04:19:20.668Z,10.43
2019-02-16T04:21:49.954Z,10.70
2019-02-16T04:24:19.219Z,8.67
2019-02-16T04:26:48.444Z,11.47
2019-02-16T04:29:17.695Z,10.30
2019-02-16T04:31:47.053Z,10.37
2019-02-16T04:34:16.444Z,11.97
2019-02-16T04:36:45.608Z,11.13
2019-02-16T04:39:14.874Z,12.00
2019-02-16T04:41:44.036Z,10.23
2019-02-16T04:44:13.304Z,11.27
2019-02-16T04:46:42.598Z,10.87
2019-02-16T04:49:11.866Z,9.67
2019-02-16T04:51:41.104Z,9.80
2019-02-16T04:54:10.429Z,11.97
2019-02-16T04:56:39.680Z,8.80
2019-02-16T04:59:08.851Z,9.00
2019-02-16T05:01:38.167Z,12.00
2019-02-16T05:04:07.418Z,12.03
2019-02-16T05:06:36.650Z,11.80
2019-02-16T05:09:07.425Z,10.90
2019-02-16T05:11:36.771Z,16.40
2019-02-16T05:14:06.062Z,14.10
2019-02-16T05:16:35.312Z,14.13
2019-02-16T05:19:04.524Z,12.47
2019-02-16T05:21:33.858Z,13.20
2019-02-16T05:24:03.018Z,12.73
2019-02-16T05:26:32.191Z,15.17
2019-02-16T05:29:01.344Z,11.33
2019-02-16T05:31:30.608Z,12.47
2019-02-16T05:33:59.835Z,11.33
2019-02-16T05:36:29.085Z,11.53
2019-02-16T05:38:58.283Z,11.63
2019-02-16T05:41:27.515Z,12.27
2019-02-16T05:43:56.751Z,10.10
2019-02-16T05:46:25.932Z,10.07
2019-02-16T05:48:55.148Z,9.50
2019-02-16T05:51:24.411Z,11.83
2019-02-16T05:53:53.634Z,10.03
2019-02-16T05:56:22.808Z,10.77
2019-02-16T05:58:52.043Z,14.53
2019-02-16T06:01:21.304Z,10.30
2019-02-16T06:03:50.527Z,12.27
2019-02-16T06:06:19.796Z,11.27
2019-02-16T06:08:49.099Z,10.80
2019-02-16T06:11:18.267Z,11.93
2019-02-16T06:13:47.587Z,11.37
2019-02-16T06:16:16.963Z,10.07
2019-02-16T06:18:46.223Z,10.80
2019-02-16T06:21:15.380Z,13.67
2019-02-16T06:23:44.566Z,11.40
2019-02-16T06:26:13.802Z,13.23
2019-02-16T06:28:43.145Z,12.47
2019-02-16T06:31:12.378Z,13.87
2019-02-16T06:33:41.710Z,15.67
2019-02-16T06:36:16.754Z,13.70
2019-02-16T06:38:46.115Z,12.13
2019-02-16T06:41:15.340Z,11.03
2019-02-16T06:43:44.669Z,13.57
2019-02-16T06:46:13.979Z,15.43
2019-02-16T06:48:43.163Z,16.00
2019-02-16T06:51:12.399Z,15.03
2019-02-16T06:53:41.730Z,11.20
2019-02-16T06:56:19.115Z,12.13
2019-02-16T06:58:48.315Z,14.10
2019-02-16T07:01:17.643Z,15.60
2019-02-16T07:03:46.961Z,14.37
2019-02-16T07:06:16.180Z,12.83
2019-02-16T07:08:45.394Z,13.83
2019-02-16T07:11:14.700Z,11.60
2019-02-16T07:13:44.004Z,14.47
2019-02-16T07:16:30.904Z,16.30
2019-02-16T07:19:07.749Z,16.10
2019-02-16T07:21:37.111Z,15.03
2019-02-16T07:24:06.523Z,17.27
2019-02-16T07:26:35.830Z,11.70
2019-02-16T07:29:05.119Z,14.30
2019-02-16T07:31:34.380Z,10.47
2019-02-16T07:34:03.689Z,14.30
2019-02-16T07:36:33.039Z,12.73
2019-02-16T07:39:02.431Z,16.13
2019-02-16T07:41:31.724Z,14.87
2019-02-16T07:44:14.868Z,10.53
2019-02-16T07:47:09.008Z,16.83
2019-02-16T07:49:56.026Z,12.57
2019-02-16T07:52:30.990Z,30.70
2019-02-16T07:55:04.775Z,30.50
2019-02-16T07:58:02.188Z,13.60
2019-02-16T08:00:58.290Z,17.27
2019-02-16T08:03:37.756Z,14.17
2019-02-16T08:06:22.011Z,17.43
2019-02-16T08:09:07.971Z,10.53
2019-02-16T08:11:49.663Z,11.70
2019-02-16T08:14:40.631Z,9.97
2019-02-16T08:17:37.887Z,12.97
2019-02-16T08:20:23.993Z,14.60
2019-02-16T08:23:11.421Z,15.60
2019-02-16T08:26:08.540Z,10.67
2019-02-16T08:28:59.088Z,16.33
2019-02-16T08:31:46.125Z,13.93
2019-02-16T08:34:40.374Z,13.03
2019-02-16T08:37:24.535Z,15.37
2019-02-16T08:40:19.068Z,15.60
2019-02-16T08:43:07.303Z,14.17
2019-02-16T08:46:11.025Z,14.40
2019-02-16T08:49:08.224Z,15.27
2019-02-16T08:51:55.603Z,15.83
2019-02-16T08:54:42.708Z,14.10
2019-02-16T08:57:24.459Z,15.83
2019-02-16T09:00:11.462Z,15.30
2019-02-16T09:03:02.996Z,15.13
2019-02-16T09:05:45.478Z,14.50
2019-02-16T09:08:40.448Z,15.53
2019-02-16T09:11:34.992Z,15.87
2019-02-16T09:14:16.682Z,15.40
2019-02-16T09:17:11.028Z,13.03
2019-02-16T09:19:55.027Z,14.83
2019-02-16T09:22:43.248Z,16.63
2019-02-16T09:25:27.888Z,13.47
2019-02-16T09:28:16.100Z,14.93
2019-02-16T09:31:07.419Z,14.90
2019-02-16T09:33:43.829Z,14.93
2019-02-16T09:36:26.723Z,14.87
2019-02-16T09:39:10.187Z,14.13
2019-02-16T09:41:47.742Z,10.70
2019-02-16T09:44:39.004Z,16.13
2019-02-16T09:47:17.408Z,10.93
2019-02-16T09:50:04.272Z,15.00
2019-02-16T09:53:01.870Z,16.97
2019-02-16T09:55:48.852Z,15.63
2019-02-16T09:58:40.304Z,11.97
2019-02-16T10:01:27.865Z,17.10
2019-02-16T10:04:15.376Z,18.10
2019-02-16T10:07:12.754Z,12.03
2019-02-16T10:09:59.659Z,19.33
2019-02-16T10:12:41.925Z,15.63
2019-02-16T10:15:27.540Z,15.47
2019-02-16T10:18:10.508Z,22.40
2019-02-16T10:21:02.191Z,19.10
2019-02-16T10:23:49.346Z,18.47
2019-02-16T10:26:27.686Z,31.03
2019-02-16T10:29:14.855Z,22.80
2019-02-16T10:32:05.955Z,24.40
2019-02-16T10:34:54.216Z,47.07
2019-02-16T10:37:54.611Z,42.53
2019-02-16T10:40:41.476Z,53.40
2019-02-16T10:43:29.696Z,36.27
2019-02-16T10:46:16.651Z,28.97
2019-02-16T10:49:07.856Z,25.00
2019-02-16T10:52:05.077Z,21.03
2019-02-16T10:54:59.541Z,30.27
2019-02-16T10:57:50.528Z,19.47
2019-02-16T11:00:31.994Z,20.37
2019-02-16T11:03:19.066Z,21.87
2019-02-16T11:06:00.706Z,16.33
2019-02-16T11:08:58.055Z,19.47
2019-02-16T11:11:34.223Z,18.00
2019-02-16T11:14:14.861Z,17.33
2019-02-16T11:17:09.167Z,20.73
2019-02-16T11:20:08.322Z,18.47
2019-02-16T11:22:45.352Z,17.60
2019-02-16T11:25:32.367Z,16.33
2019-02-16T11:28:29.873Z,16.23
2019-02-16T11:31:11.828Z,17.77
2019-02-16T11:34:09.127Z,17.97
2019-02-16T11:37:09.420Z,18.37
2019-02-16T11:39:57.631Z,19.00
2019-02-16T11:42:35.235Z,18.90
2019-02-16T11:45:33.492Z,22.07
2019-02-16T11:48:24.755Z,18.87
2019-02-16T11:51:11.688Z,21.90
2019-02-16T11:53:51.705Z,18.57
2019-02-16T11:56:46.233Z,20.27
2019-02-16T11:59:25.697Z,18.73
2019-02-16T12:02:19.844Z,19.67
2019-02-16T12:04:56.959Z,20.13
2019-02-16T12:07:40.248Z,19.37
2019-02-16T12:10:29.047Z,26.53
2019-02-16T12:13:11.993Z,18.80
2019-02-16T12:16:00.255Z,22.00
2019-02-16T12:18:47.418Z,21.30
2019-02-16T12:21:49.294Z,20.47
2019-02-16T12:24:27.172Z,19.23
2019-02-16T12:27:14.263Z,19.43
2019-02-16T12:30:14.867Z,19.63
2019-02-16T12:33:06.045Z,19.77
2019-02-16T12:35:54.231Z,21.20
2019-02-16T12:38:35.015Z,19.93
2019-02-16T12:41:32.226Z,23.17
2019-02-16T12:44:29.649Z,21.67
2019-02-16T12:47:32.952Z,19.33
2019-02-16T12:50:23.951Z,19.83
2019-02-16T12:53:17.954Z,20.50
2019-02-16T12:55:55.349Z,20.70
2019-02-16T12:58:46.399Z,21.67
2019-02-16T13:01:33.163Z,21.33
2019-02-16T13:04:21.530Z,21.80
2019-02-16T13:07:09.753Z,20.93
2019-02-16T13:09:46.438Z,22.23
2019-02-16T13:12:21.858Z,21.00
2019-02-16T13:15:10.084Z,20.57
2019-02-16T13:17:52.004Z,21.70
2019-02-16T13:20:32.386Z,20.53
2019-02-16T13:23:13.456Z,20.93
2019-02-16T13:25:56.700Z,19.80
2019-02-16T13:28:43.895Z,20.07
2019-02-16T13:31:27.416Z,19.73
2019-02-16T13:34:14.343Z,21.13
2019-02-16T13:37:07.075Z,20.03
2019-02-16T13:39:53.999Z,20.23
2019-02-16T13:42:44.203Z,21.17
2019-02-16T13:45:29.068Z,19.07
2019-02-16T13:48:10.019Z,20.17
2019-02-16T13:50:43.632Z,19.80
2019-02-16T13:53:35.667Z,20.03
2019-02-16T13:56:23.915Z,22.13
2019-02-16T13:59:11.209Z,21.87
2019-02-16T14:01:58.247Z,22.97
2019-02-16T14:04:46.478Z,20.70
2019-02-16T14:07:49.863Z,18.90
2019-02-16T14:10:53.460Z,19.07
2019-02-16T14:13:32.800Z,20.30
2019-02-16T14:16:23.768Z,19.03
2019-02-16T14:18:53.013Z,22.00
2019-02-16T14:21:22.276Z,21.50
2019-02-16T14:23:51.544Z,19.83
2019-02-16T14:26:20.752Z,22.03
2019-02-16T14:28:49.977Z,19.80
2019-02-16T14:31:28.073Z,23.03
2019-02-16T14:33:50.234Z,20.70
2019-02-16T14:36:19.481Z,21.30
2019-02-16T14:38:54.380Z,22.20
2019-02-16T14:41:23.635Z,20.67
2019-02-16T14:43:52.985Z,21.73
2019-02-16T14:46:22.221Z,19.40
2019-02-16T14:48:51.409Z,21.70
2019-02-16T14:51:20.639Z,21.03
2019-02-16T14:53:49.981Z,22.03
2019-02-16T14:56:19.273Z,22.73
2019-02-16T14:58:48.612Z,20.83
2019-02-16T15:01:17.847Z,23.20
2019-02-16T15:03:47.387Z,23.30
2019-02-16T15:06:16.643Z,22.53
2019-02-16T15:08:45.870Z,22.47
2019-02-16T15:11:15.196Z,21.20
2019-02-16T15:13:45.121Z,23.73
2019-02-16T15:16:14.508Z,22.93
2019-02-16T15:18:43.734Z,22.07
2019-02-16T15:21:12.924Z,24.10
2019-02-16T15:23:42.151Z,25.50
2019-02-16T15:26:11.415Z,24.00
2019-02-16T15:28:40.570Z,25.17
2019-02-16T15:31:09.923Z,25.83
2019-02-16T15:33:39.075Z,24.37
2019-02-16T15:36:08.346Z,26.57
2019-02-16T15:38:37.571Z,25.00
2019-02-16T15:41:06.882Z,24.10
2019-02-16T15:43:36.208Z,23.73
2019-02-16T15:46:05.471Z,26.17
2019-02-16T15:48:34.640Z,24.17
2019-02-16T15:51:03.915Z,23.17
2019-02-16T15:53:33.144Z,25.40
2019-02-16T15:56:10.103Z,23.70
2019-02-16T15:58:33.307Z,24.27
2019-02-16T16:01:03.700Z,25.93
2019-02-16T16:03:33.746Z,24.37
2019-02-16T16:06:03.634Z,24.80
2019-02-16T16:08:39.607Z,25.90
2019-02-16T16:11:34.101Z,24.67
2019-02-16T16:14:15.864Z,26.30
2019-02-16T16:16:52.456Z,26.97
2019-02-16T16:19:28.207Z,28.87
2019-02-16T16:22:10.182Z,26.20
2019-02-16T16:25:03.363Z,29.13
2019-02-16T16:27:41.539Z,25.37
2019-02-16T16:30:29.759Z,28.63
2019-02-16T16:33:24.004Z,28.53
2019-02-16T16:36:07.944Z,27.70
2019-02-16T16:38:54.843Z,30.37
2019-02-16T16:41:30.103Z,27.53
2019-02-16T16:44:15.440Z,30.27
2019-02-16T16:46:52.485Z,31.17
2019-02-16T16:49:50.134Z,30.07
2019-02-16T16:52:44.679Z,31.13
2019-02-16T16:55:35.803Z,29.83
2019-02-16T16:58:15.449Z,29.07
2019-02-16T17:01:02.382Z,27.93
2019-02-16T17:03:41.058Z,30.13
2019-02-16T17:06:34.955Z,26.43
2019-02-16T17:09:18.791Z,31.33
2019-02-16T17:12:19.327Z,27.53
2019-02-16T17:14:57.095Z,28.43
2019-02-16T17:17:33.923Z,27.53
2019-02-16T17:20:28.183Z,31.57
2019-02-16T17:23:18.687Z,31.00
2019-02-16T17:26:12.281Z,33.60
2019-02-16T17:29:00.059Z,26.40
2019-02-16T17:31:51.037Z,30.53
2019-02-16T17:34:39.223Z,37.50
2019-02-16T17:37:27.454Z,33.60
2019-02-16T17:40:14.439Z,50.00
2019-02-16T17:43:02.325Z,38.53
2019-02-16T17:45:49.575Z,28.27
2019-02-16T17:48:36.642Z,37.47
2019-02-16T17:51:21.931Z,25.93
2019-02-16T17:54:07.881Z,31.60
2019-02-16T17:57:00.476Z,23.93
2019-02-16T17:59:44.009Z,42.20
2019-02-16T18:02:35.250Z,34.50
2019-02-16T18:05:20.768Z,34.23
2019-02-16T18:08:27.183Z,39.97
2019-02-16T18:11:24.556Z,23.93
2019-02-16T18:14:12.739Z,34.80
2019-02-16T18:17:00.060Z,33.43
2019-02-16T18:19:35.218Z,28.87
2019-02-16T18:22:10.266Z,32.87
2019-02-16T18:24:58.581Z,33.07
2019-02-16T18:27:52.893Z,25.20
2019-02-16T18:30:40.024Z,26.17
2019-02-16T18:33:40.578Z,37.63
2019-02-16T18:36:27.832Z,25.37
2019-02-16T18:39:19.104Z,36.37
2019-02-16T18:42:10.131Z,29.93
2019-02-16T18:45:01.402Z,44.17
2019-02-16T18:47:37.987Z,26.27
2019-02-16T18:50:20.060Z,38.07
2019-02-16T18:53:08.311Z,28.60
2019-02-16T18:56:02.397Z,26.97
2019-02-16T18:58:46.867Z,34.93
2019-02-16T19:01:42.051Z,29.10
2019-02-16T19:04:33.291Z,35.10
2019-02-16T19:07:11.154Z,27.57
2019-02-16T19:09:48.854Z,36.87
2019-02-16T19:12:39.863Z,34.70
2019-02-16T19:15:25.721Z,40.33
2019-02-16T19:18:23.590Z,42.73
2019-02-16T19:21:23.827Z,36.33
2019-02-16T19:24:14.992Z,35.70
2019-02-16T19:27:16.434Z,42.40
2019-02-16T19:30:02.277Z,35.17
2019-02-16T19:33:05.617Z,41.60
2019-02-16T19:36:02.809Z,38.83
2019-02-16T19:38:51.026Z,37.33
2019-02-16T19:41:38.328Z,38.83
2019-02-16T19:44:24.295Z,29.20
2019-02-16T19:47:04.568Z,35.70
2019-02-16T19:49:47.241Z,30.37
2019-02-16T19:52:34.198Z,43.87
2019-02-16T19:55:22.423Z,30.53
2019-02-16T19:58:13.703Z,40.77
2019-02-16T20:01:07.774Z,39.33
2019-02-16T20:03:59.042Z,31.10
2019-02-16T20:06:53.228Z,41.30
2019-02-16T20:09:47.515Z,31.30
2019-02-16T20:12:25.377Z,36.63
2019-02-16T20:15:19.653Z,29.73
2019-02-16T20:18:06.880Z,41.77
2019-02-16T20:20:53.776Z,44.97
2019-02-16T20:23:40.951Z,31.47
2019-02-16T20:26:29.147Z,43.60
2019-02-16T20:29:17.434Z,41.23
2019-02-16T20:31:54.167Z,31.07
2019-02-16T20:34:41.622Z,42.93
2019-02-16T20:37:30.091Z,30.63
2019-02-16T20:40:08.883Z,38.10
2019-02-16T20:42:46.973Z,30.20
2019-02-16T20:45:21.315Z,40.50
2019-02-16T20:48:12.590Z,42.47
2019-02-16T20:51:06.740Z,28.93
2019-02-16T20:53:54.958Z,38.40
2019-02-16T20:56:42.276Z,30.53
2019-02-16T20:59:45.640Z,42.80
2019-02-16T21:02:52.045Z,29.27
2019-02-16T21:05:40.258Z,42.80
2019-02-16T21:08:28.536Z,28.00
2019-02-16T21:11:10.307Z,40.60
2019-02-16T21:13:50.028Z,32.50
2019-02-16T21:16:36.874Z,42.90
2019-02-16T21:19:28.179Z,32.73
2019-02-16T21:22:22.876Z,43.07
2019-02-16T21:25:00.291Z,41.93
2019-02-16T21:27:58.061Z,38.00
2019-02-16T21:30:52.342Z,40.13
2019-02-16T21:33:29.271Z,45.17
2019-02-16T21:36:20.504Z,46.17
2019-02-16T21:39:07.447Z,40.50
2019-02-16T21:42:01.799Z,39.33
2019-02-16T21:44:50.482Z,39.33
2019-02-16T21:47:33.063Z,44.70
2019-02-16T21:50:12.415Z,40.17
2019-02-16T21:53:21.480Z,41.53
2019-02-16T21:56:07.672Z,35.17
2019-02-16T21:58:54.883Z,40.60
2019-02-16T22:01:38.592Z,40.87
2019-02-16T22:04:16.182Z,41.30
2019-02-16T22:07:03.590Z,45.57
2019-02-16T22:10:00.932Z,39.47
2019-02-16T22:12:45.391Z,42.83
2019-02-16T22:15:14.881Z,43.50
2019-02-16T22:17:44.105Z,43.37
2019-02-16T22:20:13.364Z,35.00
2019-02-16T22:22:42.601Z,40.37
2019-02-16T22:25:11.792Z,41.80
2019-02-16T22:27:40.962Z,36.97
2019-02-16T22:30:10.751Z,40.40
2019-02-16T22:32:40.016Z,42.23
2019-02-16T22:35:09.350Z,37.80
2019-02-16T22:37:38.615Z,38.00
2019-02-16T22:40:08.194Z,42.83
2019-02-16T22:42:37.763Z,42.47
2019-02-16T22:45:07.571Z,42.87
2019-02-16T22:47:36.754Z,43.60
2019-02-16T22:50:07.560Z,44.17
2019-02-16T22:52:36.748Z,40.43
2019-02-16T22:55:06.242Z,39.10
2019-02-16T22:57:35.531Z,40.90
2019-02-16T23:00:08.116Z,46.80
2019-02-16T23:02:37.303Z,46.40
2019-02-16T23:05:06.928Z,40.40
2019-02-16T23:07:36.187Z,41.83
2019-02-16T23:10:07.768Z,41.50
2019-02-16T23:12:37.153Z,42.43
2019-02-16T23:15:08.135Z,43.30
2019-02-16T23:17:37.314Z,42.40
2019-02-16T23:20:08.979Z,39.87
2019-02-16T23:22:38.162Z,45.97
2019-02-16T23:25:07.503Z,49.13
2019-02-16T23:27:36.760Z,44.63
2019-02-16T23:30:06.902Z,42.47
2019-02-16T23:32:36.185Z,48.33
2019-02-16T23:35:05.640Z,41.13
2019-02-16T23:37:34.908Z,43.83
2019-02-16T23:40:04.386Z,41.23
2019-02-16T23:42:34.715Z,45.90
2019-02-16T23:45:04.158Z,40.30
2019-02-16T23:47:33.459Z,40.13
2019-02-16T23:50:02.722Z,40.17
2019-02-16T23:52:31.918Z,38.00
2019-02-16T23:55:01.223Z,42.87
2019-02-16T23:57:30.417Z,48.43
2019-02-16T23:59:59.589Z,41.43
